<?xml version="1.0" encoding="UTF-8" standalone="no" ?>
<gpx xmlns="http://www.topografix.com/GPX/1/1" xmlns:xsi="http://www.w3.org/2001/XMLSchema-instance" xsi:schemaLocation="http://www.topografix.com/GPX/1/1 http://www.topografix.com/GPX/1/1/gpx.xsd" version="1.1" creator="VisuGPX - https://www.visugpx.com">
  <metadata>
    <name>12738440-BEULOTTE-ST-LAURENT</name>
    <desc><![CDATA[Une des randonnées des 1000 étangs,avec un départ de Beulotte-St-Laurent.]]></desc>
  </metadata>
  <trk>
    <name><![CDATA[12738440-BEULOTTE-ST-LAURENT]]></name>
    <trkseg>
      <trkpt lat="47.85986" lon="6.67871">
        <ele>615</ele>
        <time>2021-03-24T20:16:05Z</time>
      </trkpt>
      <trkpt lat="47.85983" lon="6.67885">
        <ele>617</ele>
        <time>2021-03-24T20:16:18Z</time>
      </trkpt>
      <trkpt lat="47.85983" lon="6.679">
        <ele>619</ele>
        <time>2021-03-24T20:16:32Z</time>
      </trkpt>
      <trkpt lat="47.86027" lon="6.68036">
        <ele>635</ele>
        <time>2021-03-24T20:18:47Z</time>
      </trkpt>
      <trkpt lat="47.86037" lon="6.6808">
        <ele>638</ele>
        <time>2021-03-24T20:19:28Z</time>
      </trkpt>
      <trkpt lat="47.86042" lon="6.68125">
        <ele>639</ele>
        <time>2021-03-24T20:20:09Z</time>
      </trkpt>
      <trkpt lat="47.86042" lon="6.68144">
        <ele>640</ele>
        <time>2021-03-24T20:20:26Z</time>
      </trkpt>
      <trkpt lat="47.86031" lon="6.68192">
        <ele>645</ele>
        <time>2021-03-24T20:21:12Z</time>
      </trkpt>
      <trkpt lat="47.86002" lon="6.68279">
        <ele>651</ele>
        <time>2021-03-24T20:22:39Z</time>
      </trkpt>
      <trkpt lat="47.85976" lon="6.68328">
        <ele>660</ele>
        <time>2021-03-24T20:23:35Z</time>
      </trkpt>
      <trkpt lat="47.85962" lon="6.68387">
        <ele>668</ele>
        <time>2021-03-24T20:24:31Z</time>
      </trkpt>
      <trkpt lat="47.85936" lon="6.68514">
        <ele>679</ele>
        <time>2021-03-24T20:26:29Z</time>
      </trkpt>
      <trkpt lat="47.85934" lon="6.68535">
        <ele>679</ele>
        <time>2021-03-24T20:26:48Z</time>
      </trkpt>
      <trkpt lat="47.85925" lon="6.68564">
        <ele>681</ele>
        <time>2021-03-24T20:27:17Z</time>
      </trkpt>
      <trkpt lat="47.85919" lon="6.6859">
        <ele>682</ele>
        <time>2021-03-24T20:27:42Z</time>
      </trkpt>
      <trkpt lat="47.85912" lon="6.68611">
        <ele>684</ele>
        <time>2021-03-24T20:28:03Z</time>
      </trkpt>
      <trkpt lat="47.85907" lon="6.68634">
        <ele>684</ele>
        <time>2021-03-24T20:28:24Z</time>
      </trkpt>
      <trkpt lat="47.85892" lon="6.6868">
        <ele>686</ele>
        <time>2021-03-24T20:29:10Z</time>
      </trkpt>
      <trkpt lat="47.85868" lon="6.68735">
        <ele>689</ele>
        <time>2021-03-24T20:30:09Z</time>
      </trkpt>
      <trkpt lat="47.85868" lon="6.6882">
        <ele>685</ele>
        <time>2021-03-24T20:31:25Z</time>
      </trkpt>
      <trkpt lat="47.85905" lon="6.68994">
        <ele>684</ele>
        <time>2021-03-24T20:34:08Z</time>
      </trkpt>
      <trkpt lat="47.85908" lon="6.69042">
        <ele>685</ele>
        <time>2021-03-24T20:34:52Z</time>
      </trkpt>
      <trkpt lat="47.85877" lon="6.69155">
        <ele>692</ele>
        <time>2021-03-24T20:36:41Z</time>
      </trkpt>
      <trkpt lat="47.85878" lon="6.69172">
        <ele>693</ele>
        <time>2021-03-24T20:36:56Z</time>
      </trkpt>
      <trkpt lat="47.85892" lon="6.69218">
        <ele>696</ele>
        <time>2021-03-24T20:37:41Z</time>
      </trkpt>
      <trkpt lat="47.85904" lon="6.69269">
        <ele>701</ele>
        <time>2021-03-24T20:38:30Z</time>
      </trkpt>
      <trkpt lat="47.85915" lon="6.6929">
        <ele>703</ele>
        <time>2021-03-24T20:38:54Z</time>
      </trkpt>
      <trkpt lat="47.85926" lon="6.6932">
        <ele>704</ele>
        <time>2021-03-24T20:39:24Z</time>
      </trkpt>
      <trkpt lat="47.85919" lon="6.69299">
        <ele>703</ele>
        <time>2021-03-24T20:39:45Z</time>
      </trkpt>
      <trkpt lat="47.85901" lon="6.6931">
        <ele>704</ele>
        <time>2021-03-24T20:40:11Z</time>
      </trkpt>
      <trkpt lat="47.85817" lon="6.69307">
        <ele>702</ele>
        <time>2021-03-24T20:42:03Z</time>
      </trkpt>
      <trkpt lat="47.85796" lon="6.69312">
        <ele>703</ele>
        <time>2021-03-24T20:42:32Z</time>
      </trkpt>
      <trkpt lat="47.85765" lon="6.69313">
        <ele>703</ele>
        <time>2021-03-24T20:43:13Z</time>
      </trkpt>
      <trkpt lat="47.85745" lon="6.69324">
        <ele>704</ele>
        <time>2021-03-24T20:43:42Z</time>
      </trkpt>
      <trkpt lat="47.85704" lon="6.69324">
        <ele>704</ele>
        <time>2021-03-24T20:44:36Z</time>
      </trkpt>
      <trkpt lat="47.85612" lon="6.69309">
        <ele>697</ele>
        <time>2021-03-24T20:46:40Z</time>
      </trkpt>
      <trkpt lat="47.85592" lon="6.69307">
        <ele>695</ele>
        <time>2021-03-24T20:47:06Z</time>
      </trkpt>
      <trkpt lat="47.8558" lon="6.693">
        <ele>694</ele>
        <time>2021-03-24T20:47:24Z</time>
      </trkpt>
      <trkpt lat="47.8553" lon="6.69239">
        <ele>691</ele>
        <time>2021-03-24T20:48:50Z</time>
      </trkpt>
      <trkpt lat="47.85478" lon="6.69144">
        <ele>687</ele>
        <time>2021-03-24T20:50:40Z</time>
      </trkpt>
      <trkpt lat="47.85467" lon="6.69066">
        <ele>685</ele>
        <time>2021-03-24T20:51:51Z</time>
      </trkpt>
      <trkpt lat="47.85457" lon="6.69047">
        <ele>684</ele>
        <time>2021-03-24T20:52:13Z</time>
      </trkpt>
      <trkpt lat="47.85446" lon="6.69031">
        <ele>683</ele>
        <time>2021-03-24T20:52:33Z</time>
      </trkpt>
      <trkpt lat="47.85386" lon="6.68969">
        <ele>681</ele>
        <time>2021-03-24T20:54:11Z</time>
      </trkpt>
      <trkpt lat="47.85367" lon="6.68913">
        <ele>685</ele>
        <time>2021-03-24T20:55:07Z</time>
      </trkpt>
      <trkpt lat="47.8531" lon="6.68882">
        <ele>684</ele>
        <time>2021-03-24T20:56:28Z</time>
      </trkpt>
      <trkpt lat="47.85271" lon="6.6887">
        <ele>683</ele>
        <time>2021-03-24T20:57:21Z</time>
      </trkpt>
      <trkpt lat="47.85251" lon="6.6885">
        <ele>683</ele>
        <time>2021-03-24T20:57:53Z</time>
      </trkpt>
      <trkpt lat="47.85221" lon="6.68838">
        <ele>681</ele>
        <time>2021-03-24T20:58:35Z</time>
      </trkpt>
      <trkpt lat="47.85207" lon="6.68839">
        <ele>680</ele>
        <time>2021-03-24T20:58:53Z</time>
      </trkpt>
      <trkpt lat="47.85147" lon="6.68854">
        <ele>677</ele>
        <time>2021-03-24T21:00:14Z</time>
      </trkpt>
      <trkpt lat="47.85127" lon="6.6885">
        <ele>675</ele>
        <time>2021-03-24T21:00:41Z</time>
      </trkpt>
      <trkpt lat="47.85121" lon="6.68836">
        <ele>674</ele>
        <time>2021-03-24T21:00:56Z</time>
      </trkpt>
      <trkpt lat="47.85118" lon="6.68821">
        <ele>673</ele>
        <time>2021-03-24T21:01:10Z</time>
      </trkpt>
      <trkpt lat="47.85118" lon="6.6878">
        <ele>672</ele>
        <time>2021-03-24T21:01:47Z</time>
      </trkpt>
      <trkpt lat="47.85113" lon="6.68766">
        <ele>672</ele>
        <time>2021-03-24T21:02:01Z</time>
      </trkpt>
      <trkpt lat="47.85091" lon="6.68744">
        <ele>670</ele>
        <time>2021-03-24T21:02:37Z</time>
      </trkpt>
      <trkpt lat="47.85041" lon="6.68717">
        <ele>668</ele>
        <time>2021-03-24T21:03:47Z</time>
      </trkpt>
      <trkpt lat="47.85017" lon="6.68708">
        <ele>667</ele>
        <time>2021-03-24T21:04:21Z</time>
      </trkpt>
      <trkpt lat="47.84916" lon="6.68635">
        <ele>667</ele>
        <time>2021-03-24T21:06:50Z</time>
      </trkpt>
      <trkpt lat="47.84909" lon="6.68642">
        <ele>666</ele>
        <time>2021-03-24T21:07:02Z</time>
      </trkpt>
      <trkpt lat="47.84881" lon="6.6865">
        <ele>665</ele>
        <time>2021-03-24T21:07:40Z</time>
      </trkpt>
      <trkpt lat="47.84864" lon="6.68651">
        <ele>664</ele>
        <time>2021-03-24T21:08:02Z</time>
      </trkpt>
      <trkpt lat="47.84849" lon="6.68645">
        <ele>663</ele>
        <time>2021-03-24T21:08:23Z</time>
      </trkpt>
      <trkpt lat="47.84838" lon="6.68634">
        <ele>663</ele>
        <time>2021-03-24T21:08:41Z</time>
      </trkpt>
      <trkpt lat="47.8483" lon="6.68623">
        <ele>662</ele>
        <time>2021-03-24T21:08:55Z</time>
      </trkpt>
      <trkpt lat="47.84814" lon="6.68593">
        <ele>661</ele>
        <time>2021-03-24T21:09:30Z</time>
      </trkpt>
      <trkpt lat="47.84801" lon="6.68581">
        <ele>661</ele>
        <time>2021-03-24T21:09:50Z</time>
      </trkpt>
      <trkpt lat="47.84794" lon="6.68578">
        <ele>661</ele>
        <time>2021-03-24T21:10:00Z</time>
      </trkpt>
      <trkpt lat="47.84785" lon="6.68585">
        <ele>661</ele>
        <time>2021-03-24T21:10:13Z</time>
      </trkpt>
      <trkpt lat="47.84774" lon="6.6859">
        <ele>660</ele>
        <time>2021-03-24T21:10:29Z</time>
      </trkpt>
      <trkpt lat="47.84761" lon="6.68592">
        <ele>660</ele>
        <time>2021-03-24T21:10:46Z</time>
      </trkpt>
      <trkpt lat="47.84736" lon="6.68608">
        <ele>659</ele>
        <time>2021-03-24T21:11:22Z</time>
      </trkpt>
      <trkpt lat="47.84713" lon="6.68618">
        <ele>660</ele>
        <time>2021-03-24T21:11:54Z</time>
      </trkpt>
      <trkpt lat="47.84694" lon="6.68623">
        <ele>660</ele>
        <time>2021-03-24T21:12:20Z</time>
      </trkpt>
      <trkpt lat="47.84678" lon="6.68633">
        <ele>660</ele>
        <time>2021-03-24T21:12:43Z</time>
      </trkpt>
      <trkpt lat="47.84666" lon="6.68629">
        <ele>661</ele>
        <time>2021-03-24T21:13:00Z</time>
      </trkpt>
      <trkpt lat="47.84646" lon="6.68628">
        <ele>662</ele>
        <time>2021-03-24T21:13:26Z</time>
      </trkpt>
      <trkpt lat="47.84604" lon="6.68626">
        <ele>664</ele>
        <time>2021-03-24T21:14:22Z</time>
      </trkpt>
      <trkpt lat="47.84587" lon="6.68629">
        <ele>664</ele>
        <time>2021-03-24T21:14:45Z</time>
      </trkpt>
      <trkpt lat="47.84573" lon="6.6864">
        <ele>664</ele>
        <time>2021-03-24T21:15:06Z</time>
      </trkpt>
      <trkpt lat="47.84557" lon="6.68662">
        <ele>664</ele>
        <time>2021-03-24T21:15:35Z</time>
      </trkpt>
      <trkpt lat="47.84547" lon="6.68671">
        <ele>664</ele>
        <time>2021-03-24T21:15:51Z</time>
      </trkpt>
      <trkpt lat="47.84533" lon="6.68677">
        <ele>663</ele>
        <time>2021-03-24T21:16:10Z</time>
      </trkpt>
      <trkpt lat="47.84498" lon="6.68684">
        <ele>662</ele>
        <time>2021-03-24T21:16:58Z</time>
      </trkpt>
      <trkpt lat="47.8446" lon="6.68686">
        <ele>659</ele>
        <time>2021-03-24T21:17:48Z</time>
      </trkpt>
      <trkpt lat="47.84428" lon="6.68682">
        <ele>656</ele>
        <time>2021-03-24T21:18:31Z</time>
      </trkpt>
      <trkpt lat="47.8441" lon="6.68668">
        <ele>654</ele>
        <time>2021-03-24T21:18:58Z</time>
      </trkpt>
      <trkpt lat="47.84371" lon="6.68652">
        <ele>651</ele>
        <time>2021-03-24T21:19:52Z</time>
      </trkpt>
      <trkpt lat="47.84364" lon="6.68637">
        <ele>651</ele>
        <time>2021-03-24T21:20:09Z</time>
      </trkpt>
      <trkpt lat="47.84352" lon="6.68629">
        <ele>651</ele>
        <time>2021-03-24T21:20:26Z</time>
      </trkpt>
      <trkpt lat="47.84339" lon="6.68623">
        <ele>650</ele>
        <time>2021-03-24T21:20:44Z</time>
      </trkpt>
      <trkpt lat="47.84286" lon="6.68576">
        <ele>645</ele>
        <time>2021-03-24T21:22:07Z</time>
      </trkpt>
      <trkpt lat="47.84254" lon="6.68572">
        <ele>640</ele>
        <time>2021-03-24T21:22:49Z</time>
      </trkpt>
      <trkpt lat="47.84249" lon="6.68581">
        <ele>639</ele>
        <time>2021-03-24T21:23:00Z</time>
      </trkpt>
      <trkpt lat="47.84239" lon="6.68588">
        <ele>638</ele>
        <time>2021-03-24T21:23:15Z</time>
      </trkpt>
      <trkpt lat="47.84219" lon="6.68596">
        <ele>636</ele>
        <time>2021-03-24T21:23:42Z</time>
      </trkpt>
      <trkpt lat="47.84209" lon="6.68612">
        <ele>634</ele>
        <time>2021-03-24T21:24:02Z</time>
      </trkpt>
      <trkpt lat="47.84204" lon="6.68628">
        <ele>631</ele>
        <time>2021-03-24T21:24:18Z</time>
      </trkpt>
      <trkpt lat="47.84191" lon="6.68663">
        <ele>624</ele>
        <time>2021-03-24T21:24:54Z</time>
      </trkpt>
      <trkpt lat="47.84187" lon="6.6869">
        <ele>621</ele>
        <time>2021-03-24T21:25:18Z</time>
      </trkpt>
      <trkpt lat="47.84133" lon="6.68664">
        <ele>621</ele>
        <time>2021-03-24T21:26:34Z</time>
      </trkpt>
      <trkpt lat="47.84117" lon="6.68646">
        <ele>624</ele>
        <time>2021-03-24T21:27:01Z</time>
      </trkpt>
      <trkpt lat="47.84091" lon="6.68658">
        <ele>622</ele>
        <time>2021-03-24T21:27:37Z</time>
      </trkpt>
      <trkpt lat="47.84071" lon="6.68703">
        <ele>618</ele>
        <time>2021-03-24T21:28:25Z</time>
      </trkpt>
      <trkpt lat="47.84038" lon="6.68767">
        <ele>617</ele>
        <time>2021-03-24T21:29:38Z</time>
      </trkpt>
      <trkpt lat="47.83999" lon="6.68824">
        <ele>618</ele>
        <time>2021-03-24T21:30:51Z</time>
      </trkpt>
      <trkpt lat="47.83981" lon="6.68852">
        <ele>612</ele>
        <time>2021-03-24T21:31:25Z</time>
      </trkpt>
      <trkpt lat="47.83975" lon="6.68856">
        <ele>611</ele>
        <time>2021-03-24T21:31:34Z</time>
      </trkpt>
      <trkpt lat="47.83958" lon="6.68854">
        <ele>611</ele>
        <time>2021-03-24T21:31:57Z</time>
      </trkpt>
      <trkpt lat="47.83934" lon="6.68848">
        <ele>612</ele>
        <time>2021-03-24T21:32:29Z</time>
      </trkpt>
      <trkpt lat="47.83899" lon="6.68835">
        <ele>608</ele>
        <time>2021-03-24T21:33:17Z</time>
      </trkpt>
      <trkpt lat="47.83888" lon="6.6882">
        <ele>606</ele>
        <time>2021-03-24T21:33:37Z</time>
      </trkpt>
      <trkpt lat="47.83852" lon="6.68751">
        <ele>605</ele>
        <time>2021-03-24T21:34:56Z</time>
      </trkpt>
      <trkpt lat="47.83823" lon="6.68703">
        <ele>601</ele>
        <time>2021-03-24T21:35:54Z</time>
      </trkpt>
      <trkpt lat="47.83818" lon="6.6869">
        <ele>601</ele>
        <time>2021-03-24T21:36:07Z</time>
      </trkpt>
      <trkpt lat="47.83817" lon="6.68674">
        <ele>603</ele>
        <time>2021-03-24T21:36:21Z</time>
      </trkpt>
      <trkpt lat="47.83811" lon="6.68638">
        <ele>605</ele>
        <time>2021-03-24T21:36:55Z</time>
      </trkpt>
      <trkpt lat="47.83812" lon="6.68618">
        <ele>608</ele>
        <time>2021-03-24T21:37:13Z</time>
      </trkpt>
      <trkpt lat="47.83817" lon="6.68587">
        <ele>612</ele>
        <time>2021-03-24T21:37:41Z</time>
      </trkpt>
      <trkpt lat="47.8383" lon="6.68549">
        <ele>613</ele>
        <time>2021-03-24T21:38:19Z</time>
      </trkpt>
      <trkpt lat="47.83844" lon="6.68525">
        <ele>614</ele>
        <time>2021-03-24T21:38:48Z</time>
      </trkpt>
      <trkpt lat="47.83886" lon="6.6848">
        <ele>615</ele>
        <time>2021-03-24T21:39:57Z</time>
      </trkpt>
      <trkpt lat="47.83909" lon="6.6845">
        <ele>615</ele>
        <time>2021-03-24T21:40:38Z</time>
      </trkpt>
      <trkpt lat="47.83915" lon="6.68432">
        <ele>614</ele>
        <time>2021-03-24T21:40:56Z</time>
      </trkpt>
      <trkpt lat="47.83919" lon="6.68425">
        <ele>614</ele>
        <time>2021-03-24T21:41:04Z</time>
      </trkpt>
      <trkpt lat="47.83922" lon="6.68404">
        <ele>614</ele>
        <time>2021-03-24T21:41:23Z</time>
      </trkpt>
      <trkpt lat="47.83924" lon="6.68376">
        <ele>613</ele>
        <time>2021-03-24T21:41:48Z</time>
      </trkpt>
      <trkpt lat="47.83932" lon="6.68333">
        <ele>614</ele>
        <time>2021-03-24T21:42:28Z</time>
      </trkpt>
      <trkpt lat="47.83959" lon="6.6824">
        <ele>610</ele>
        <time>2021-03-24T21:43:59Z</time>
      </trkpt>
      <trkpt lat="47.83984" lon="6.68215">
        <ele>613</ele>
        <time>2021-03-24T21:44:39Z</time>
      </trkpt>
      <trkpt lat="47.84009" lon="6.68198">
        <ele>616</ele>
        <time>2021-03-24T21:45:16Z</time>
      </trkpt>
      <trkpt lat="47.84064" lon="6.68178">
        <ele>621</ele>
        <time>2021-03-24T21:46:31Z</time>
      </trkpt>
      <trkpt lat="47.84083" lon="6.68157">
        <ele>623</ele>
        <time>2021-03-24T21:47:03Z</time>
      </trkpt>
      <trkpt lat="47.84091" lon="6.68151">
        <ele>623</ele>
        <time>2021-03-24T21:47:15Z</time>
      </trkpt>
      <trkpt lat="47.84104" lon="6.68146">
        <ele>623</ele>
        <time>2021-03-24T21:47:33Z</time>
      </trkpt>
      <trkpt lat="47.84114" lon="6.68136">
        <ele>622</ele>
        <time>2021-03-24T21:47:49Z</time>
      </trkpt>
      <trkpt lat="47.84116" lon="6.68125">
        <ele>622</ele>
        <time>2021-03-24T21:47:59Z</time>
      </trkpt>
      <trkpt lat="47.84111" lon="6.68114">
        <ele>622</ele>
        <time>2021-03-24T21:48:11Z</time>
      </trkpt>
      <trkpt lat="47.84096" lon="6.68092">
        <ele>621</ele>
        <time>2021-03-24T21:48:39Z</time>
      </trkpt>
      <trkpt lat="47.84063" lon="6.68063">
        <ele>620</ele>
        <time>2021-03-24T21:49:30Z</time>
      </trkpt>
      <trkpt lat="47.84052" lon="6.68048">
        <ele>620</ele>
        <time>2021-03-24T21:49:50Z</time>
      </trkpt>
      <trkpt lat="47.84044" lon="6.68032">
        <ele>620</ele>
        <time>2021-03-24T21:50:08Z</time>
      </trkpt>
      <trkpt lat="47.84042" lon="6.68022">
        <ele>620</ele>
        <time>2021-03-24T21:50:17Z</time>
      </trkpt>
      <trkpt lat="47.84041" lon="6.68012">
        <ele>620</ele>
        <time>2021-03-24T21:50:26Z</time>
      </trkpt>
      <trkpt lat="47.84049" lon="6.67981">
        <ele>622</ele>
        <time>2021-03-24T21:50:56Z</time>
      </trkpt>
      <trkpt lat="47.84051" lon="6.67969">
        <ele>623</ele>
        <time>2021-03-24T21:51:07Z</time>
      </trkpt>
      <trkpt lat="47.8405" lon="6.67942">
        <ele>623</ele>
        <time>2021-03-24T21:51:31Z</time>
      </trkpt>
      <trkpt lat="47.84044" lon="6.6792">
        <ele>622</ele>
        <time>2021-03-24T21:51:53Z</time>
      </trkpt>
      <trkpt lat="47.84039" lon="6.6787">
        <ele>621</ele>
        <time>2021-03-24T21:52:38Z</time>
      </trkpt>
      <trkpt lat="47.84041" lon="6.67859">
        <ele>622</ele>
        <time>2021-03-24T21:52:48Z</time>
      </trkpt>
      <trkpt lat="47.8405" lon="6.67833">
        <ele>623</ele>
        <time>2021-03-24T21:53:14Z</time>
      </trkpt>
      <trkpt lat="47.84055" lon="6.67824">
        <ele>624</ele>
        <time>2021-03-24T21:53:25Z</time>
      </trkpt>
      <trkpt lat="47.84074" lon="6.67804">
        <ele>626</ele>
        <time>2021-03-24T21:53:56Z</time>
      </trkpt>
      <trkpt lat="47.8408" lon="6.67794">
        <ele>626</ele>
        <time>2021-03-24T21:54:08Z</time>
      </trkpt>
      <trkpt lat="47.84084" lon="6.67784">
        <ele>626</ele>
        <time>2021-03-24T21:54:18Z</time>
      </trkpt>
      <trkpt lat="47.841" lon="6.67725">
        <ele>626</ele>
        <time>2021-03-24T21:55:15Z</time>
      </trkpt>
      <trkpt lat="47.84108" lon="6.67749">
        <ele>627</ele>
        <time>2021-03-24T21:55:39Z</time>
      </trkpt>
      <trkpt lat="47.84131" lon="6.67788">
        <ele>632</ele>
        <time>2021-03-24T21:56:26Z</time>
      </trkpt>
      <trkpt lat="47.84151" lon="6.67851">
        <ele>636</ele>
        <time>2021-03-24T21:57:28Z</time>
      </trkpt>
      <trkpt lat="47.84154" lon="6.67858">
        <ele>636</ele>
        <time>2021-03-24T21:57:36Z</time>
      </trkpt>
      <trkpt lat="47.84182" lon="6.67819">
        <ele>639</ele>
        <time>2021-03-24T21:58:27Z</time>
      </trkpt>
      <trkpt lat="47.84236" lon="6.67805">
        <ele>643</ele>
        <time>2021-03-24T21:59:40Z</time>
      </trkpt>
      <trkpt lat="47.84263" lon="6.6779">
        <ele>645</ele>
        <time>2021-03-24T22:00:18Z</time>
      </trkpt>
      <trkpt lat="47.84285" lon="6.67772">
        <ele>647</ele>
        <time>2021-03-24T22:00:52Z</time>
      </trkpt>
      <trkpt lat="47.84317" lon="6.67765">
        <ele>649</ele>
        <time>2021-03-24T22:01:35Z</time>
      </trkpt>
      <trkpt lat="47.84343" lon="6.67739">
        <ele>652</ele>
        <time>2021-03-24T22:02:17Z</time>
      </trkpt>
      <trkpt lat="47.84362" lon="6.67733">
        <ele>653</ele>
        <time>2021-03-24T22:02:43Z</time>
      </trkpt>
      <trkpt lat="47.84377" lon="6.67731">
        <ele>654</ele>
        <time>2021-03-24T22:03:03Z</time>
      </trkpt>
      <trkpt lat="47.84381" lon="6.67705">
        <ele>655</ele>
        <time>2021-03-24T22:03:27Z</time>
      </trkpt>
      <trkpt lat="47.84383" lon="6.67653">
        <ele>655</ele>
        <time>2021-03-24T22:04:13Z</time>
      </trkpt>
      <trkpt lat="47.84385" lon="6.67642">
        <ele>655</ele>
        <time>2021-03-24T22:04:24Z</time>
      </trkpt>
      <trkpt lat="47.84395" lon="6.67621">
        <ele>655</ele>
        <time>2021-03-24T22:04:47Z</time>
      </trkpt>
      <trkpt lat="47.84402" lon="6.67598">
        <ele>654</ele>
        <time>2021-03-24T22:05:09Z</time>
      </trkpt>
      <trkpt lat="47.84427" lon="6.67563">
        <ele>654</ele>
        <time>2021-03-24T22:05:55Z</time>
      </trkpt>
      <trkpt lat="47.84439" lon="6.67552">
        <ele>654</ele>
        <time>2021-03-24T22:06:14Z</time>
      </trkpt>
      <trkpt lat="47.8444" lon="6.67538">
        <ele>653</ele>
        <time>2021-03-24T22:06:27Z</time>
      </trkpt>
      <trkpt lat="47.84436" lon="6.67518">
        <ele>652</ele>
        <time>2021-03-24T22:06:45Z</time>
      </trkpt>
      <trkpt lat="47.84419" lon="6.67475">
        <ele>650</ele>
        <time>2021-03-24T22:07:30Z</time>
      </trkpt>
      <trkpt lat="47.84416" lon="6.67449">
        <ele>649</ele>
        <time>2021-03-24T22:07:54Z</time>
      </trkpt>
      <trkpt lat="47.84418" lon="6.67436">
        <ele>649</ele>
        <time>2021-03-24T22:08:06Z</time>
      </trkpt>
      <trkpt lat="47.84424" lon="6.67429">
        <ele>649</ele>
        <time>2021-03-24T22:08:16Z</time>
      </trkpt>
      <trkpt lat="47.84444" lon="6.67416">
        <ele>649</ele>
        <time>2021-03-24T22:08:45Z</time>
      </trkpt>
      <trkpt lat="47.84454" lon="6.67403">
        <ele>650</ele>
        <time>2021-03-24T22:09:02Z</time>
      </trkpt>
      <trkpt lat="47.84464" lon="6.67383">
        <ele>650</ele>
        <time>2021-03-24T22:09:25Z</time>
      </trkpt>
      <trkpt lat="47.84469" lon="6.67356">
        <ele>650</ele>
        <time>2021-03-24T22:09:50Z</time>
      </trkpt>
      <trkpt lat="47.84469" lon="6.67347">
        <ele>649</ele>
        <time>2021-03-24T22:09:58Z</time>
      </trkpt>
      <trkpt lat="47.84447" lon="6.67318">
        <ele>649</ele>
        <time>2021-03-24T22:10:37Z</time>
      </trkpt>
      <trkpt lat="47.8443" lon="6.67265">
        <ele>649</ele>
        <time>2021-03-24T22:11:30Z</time>
      </trkpt>
      <trkpt lat="47.84419" lon="6.6724">
        <ele>650</ele>
        <time>2021-03-24T22:11:57Z</time>
      </trkpt>
      <trkpt lat="47.84375" lon="6.67164">
        <ele>649</ele>
        <time>2021-03-24T22:13:26Z</time>
      </trkpt>
      <trkpt lat="47.84377" lon="6.67146">
        <ele>648</ele>
        <time>2021-03-24T22:13:43Z</time>
      </trkpt>
      <trkpt lat="47.84376" lon="6.67127">
        <ele>648</ele>
        <time>2021-03-24T22:14:00Z</time>
      </trkpt>
      <trkpt lat="47.84379" lon="6.67117">
        <ele>647</ele>
        <time>2021-03-24T22:14:10Z</time>
      </trkpt>
      <trkpt lat="47.84384" lon="6.67111">
        <ele>647</ele>
        <time>2021-03-24T22:14:18Z</time>
      </trkpt>
      <trkpt lat="47.84383" lon="6.67097">
        <ele>646</ele>
        <time>2021-03-24T22:14:31Z</time>
      </trkpt>
      <trkpt lat="47.84374" lon="6.67065">
        <ele>646</ele>
        <time>2021-03-24T22:15:02Z</time>
      </trkpt>
      <trkpt lat="47.84376" lon="6.67039">
        <ele>645</ele>
        <time>2021-03-24T22:15:25Z</time>
      </trkpt>
      <trkpt lat="47.84397" lon="6.66959">
        <ele>642</ele>
        <time>2021-03-24T22:16:42Z</time>
      </trkpt>
      <trkpt lat="47.84404" lon="6.66919">
        <ele>640</ele>
        <time>2021-03-24T22:17:19Z</time>
      </trkpt>
      <trkpt lat="47.844" lon="6.66856">
        <ele>640</ele>
        <time>2021-03-24T22:18:16Z</time>
      </trkpt>
      <trkpt lat="47.844" lon="6.66824">
        <ele>640</ele>
        <time>2021-03-24T22:18:45Z</time>
      </trkpt>
      <trkpt lat="47.84402" lon="6.66806">
        <ele>639</ele>
        <time>2021-03-24T22:19:01Z</time>
      </trkpt>
      <trkpt lat="47.84402" lon="6.66768">
        <ele>638</ele>
        <time>2021-03-24T22:19:35Z</time>
      </trkpt>
      <trkpt lat="47.84398" lon="6.66724">
        <ele>639</ele>
        <time>2021-03-24T22:20:15Z</time>
      </trkpt>
      <trkpt lat="47.84399" lon="6.66679">
        <ele>638</ele>
        <time>2021-03-24T22:20:55Z</time>
      </trkpt>
      <trkpt lat="47.84402" lon="6.66622">
        <ele>636</ele>
        <time>2021-03-24T22:21:46Z</time>
      </trkpt>
      <trkpt lat="47.84406" lon="6.66598">
        <ele>635</ele>
        <time>2021-03-24T22:22:08Z</time>
      </trkpt>
      <trkpt lat="47.84389" lon="6.6651">
        <ele>633</ele>
        <time>2021-03-24T22:23:31Z</time>
      </trkpt>
      <trkpt lat="47.84354" lon="6.66406">
        <ele>625</ele>
        <time>2021-03-24T22:25:15Z</time>
      </trkpt>
      <trkpt lat="47.84345" lon="6.66401">
        <ele>625</ele>
        <time>2021-03-24T22:25:28Z</time>
      </trkpt>
      <trkpt lat="47.84334" lon="6.66421">
        <ele>626</ele>
        <time>2021-03-24T22:25:51Z</time>
      </trkpt>
      <trkpt lat="47.84329" lon="6.66443">
        <ele>628</ele>
        <time>2021-03-24T22:26:11Z</time>
      </trkpt>
      <trkpt lat="47.8432" lon="6.66452">
        <ele>629</ele>
        <time>2021-03-24T22:26:26Z</time>
      </trkpt>
      <trkpt lat="47.84298" lon="6.66466">
        <ele>629</ele>
        <time>2021-03-24T22:26:58Z</time>
      </trkpt>
      <trkpt lat="47.84271" lon="6.66478">
        <ele>629</ele>
        <time>2021-03-24T22:27:35Z</time>
      </trkpt>
      <trkpt lat="47.84233" lon="6.66502">
        <ele>629</ele>
        <time>2021-03-24T22:28:31Z</time>
      </trkpt>
      <trkpt lat="47.84219" lon="6.66516">
        <ele>630</ele>
        <time>2021-03-24T22:28:53Z</time>
      </trkpt>
      <trkpt lat="47.84206" lon="6.66526">
        <ele>631</ele>
        <time>2021-03-24T22:29:13Z</time>
      </trkpt>
      <trkpt lat="47.84178" lon="6.6654">
        <ele>632</ele>
        <time>2021-03-24T22:29:52Z</time>
      </trkpt>
      <trkpt lat="47.84167" lon="6.66537">
        <ele>631</ele>
        <time>2021-03-24T22:30:07Z</time>
      </trkpt>
      <trkpt lat="47.84164" lon="6.66524">
        <ele>629</ele>
        <time>2021-03-24T22:30:19Z</time>
      </trkpt>
      <trkpt lat="47.84162" lon="6.66472">
        <ele>626</ele>
        <time>2021-03-24T22:31:06Z</time>
      </trkpt>
      <trkpt lat="47.84159" lon="6.66423">
        <ele>625</ele>
        <time>2021-03-24T22:31:50Z</time>
      </trkpt>
      <trkpt lat="47.8415" lon="6.66347">
        <ele>625</ele>
        <time>2021-03-24T22:32:59Z</time>
      </trkpt>
      <trkpt lat="47.84148" lon="6.66319">
        <ele>624</ele>
        <time>2021-03-24T22:33:24Z</time>
      </trkpt>
      <trkpt lat="47.84144" lon="6.66303">
        <ele>623</ele>
        <time>2021-03-24T22:33:40Z</time>
      </trkpt>
      <trkpt lat="47.84144" lon="6.663">
        <ele>622</ele>
        <time>2021-03-24T22:33:42Z</time>
      </trkpt>
      <trkpt lat="47.84144" lon="6.66281">
        <ele>621</ele>
        <time>2021-03-24T22:33:59Z</time>
      </trkpt>
      <trkpt lat="47.84248" lon="6.66213">
        <ele>625</ele>
        <time>2021-03-24T22:36:31Z</time>
      </trkpt>
      <trkpt lat="47.84271" lon="6.66186">
        <ele>624</ele>
        <time>2021-03-24T22:37:10Z</time>
      </trkpt>
      <trkpt lat="47.84292" lon="6.66171">
        <ele>624</ele>
        <time>2021-03-24T22:37:41Z</time>
      </trkpt>
      <trkpt lat="47.84321" lon="6.66144">
        <ele>623</ele>
        <time>2021-03-24T22:38:27Z</time>
      </trkpt>
      <trkpt lat="47.84359" lon="6.66072">
        <ele>625</ele>
        <time>2021-03-24T22:39:49Z</time>
      </trkpt>
      <trkpt lat="47.84384" lon="6.66013">
        <ele>624</ele>
        <time>2021-03-24T22:40:51Z</time>
      </trkpt>
      <trkpt lat="47.84391" lon="6.66">
        <ele>624</ele>
        <time>2021-03-24T22:41:06Z</time>
      </trkpt>
      <trkpt lat="47.84399" lon="6.65992">
        <ele>624</ele>
        <time>2021-03-24T22:41:19Z</time>
      </trkpt>
      <trkpt lat="47.84411" lon="6.65986">
        <ele>624</ele>
        <time>2021-03-24T22:41:36Z</time>
      </trkpt>
      <trkpt lat="47.84436" lon="6.65986">
        <ele>624</ele>
        <time>2021-03-24T22:42:09Z</time>
      </trkpt>
      <trkpt lat="47.8445" lon="6.65972">
        <ele>625</ele>
        <time>2021-03-24T22:42:32Z</time>
      </trkpt>
      <trkpt lat="47.8448" lon="6.65849">
        <ele>627</ele>
        <time>2021-03-24T22:44:29Z</time>
      </trkpt>
      <trkpt lat="47.84499" lon="6.65864">
        <ele>627</ele>
        <time>2021-03-24T22:44:58Z</time>
      </trkpt>
      <trkpt lat="47.84528" lon="6.65896">
        <ele>624</ele>
        <time>2021-03-24T22:45:46Z</time>
      </trkpt>
      <trkpt lat="47.84586" lon="6.65872">
        <ele>621</ele>
        <time>2021-03-24T22:47:06Z</time>
      </trkpt>
      <trkpt lat="47.84612" lon="6.65857">
        <ele>620</ele>
        <time>2021-03-24T22:47:43Z</time>
      </trkpt>
      <trkpt lat="47.84635" lon="6.65834">
        <ele>620</ele>
        <time>2021-03-24T22:48:20Z</time>
      </trkpt>
      <trkpt lat="47.84659" lon="6.6577">
        <ele>619</ele>
        <time>2021-03-24T22:49:26Z</time>
      </trkpt>
      <trkpt lat="47.84655" lon="6.65656">
        <ele>620</ele>
        <time>2021-03-24T22:51:08Z</time>
      </trkpt>
      <trkpt lat="47.84653" lon="6.65652">
        <ele>620</ele>
        <time>2021-03-24T22:51:13Z</time>
      </trkpt>
      <trkpt lat="47.84655" lon="6.65656">
        <ele>620</ele>
        <time>2021-03-24T22:51:17Z</time>
      </trkpt>
      <trkpt lat="47.84671" lon="6.65656">
        <ele>620</ele>
        <time>2021-03-24T22:51:38Z</time>
      </trkpt>
      <trkpt lat="47.84685" lon="6.65663">
        <ele>619</ele>
        <time>2021-03-24T22:51:58Z</time>
      </trkpt>
      <trkpt lat="47.84699" lon="6.65677">
        <ele>617</ele>
        <time>2021-03-24T22:52:21Z</time>
      </trkpt>
      <trkpt lat="47.84705" lon="6.65686">
        <ele>616</ele>
        <time>2021-03-24T22:52:32Z</time>
      </trkpt>
      <trkpt lat="47.84746" lon="6.65699">
        <ele>611</ele>
        <time>2021-03-24T22:53:28Z</time>
      </trkpt>
      <trkpt lat="47.84767" lon="6.65702">
        <ele>608</ele>
        <time>2021-03-24T22:53:56Z</time>
      </trkpt>
      <trkpt lat="47.84783" lon="6.65699">
        <ele>606</ele>
        <time>2021-03-24T22:54:18Z</time>
      </trkpt>
      <trkpt lat="47.84818" lon="6.65673">
        <ele>604</ele>
        <time>2021-03-24T22:55:10Z</time>
      </trkpt>
      <trkpt lat="47.8484" lon="6.65623">
        <ele>602</ele>
        <time>2021-03-24T22:56:03Z</time>
      </trkpt>
      <trkpt lat="47.84849" lon="6.65597">
        <ele>601</ele>
        <time>2021-03-24T22:56:30Z</time>
      </trkpt>
      <trkpt lat="47.84855" lon="6.65589">
        <ele>600</ele>
        <time>2021-03-24T22:56:40Z</time>
      </trkpt>
      <trkpt lat="47.84865" lon="6.6559">
        <ele>598</ele>
        <time>2021-03-24T22:56:54Z</time>
      </trkpt>
      <trkpt lat="47.8487" lon="6.65593">
        <ele>597</ele>
        <time>2021-03-24T22:57:01Z</time>
      </trkpt>
      <trkpt lat="47.84866" lon="6.65619">
        <ele>597</ele>
        <time>2021-03-24T22:57:25Z</time>
      </trkpt>
      <trkpt lat="47.84857" lon="6.65651">
        <ele>598</ele>
        <time>2021-03-24T22:57:56Z</time>
      </trkpt>
      <trkpt lat="47.84851" lon="6.65683">
        <ele>598</ele>
        <time>2021-03-24T22:58:26Z</time>
      </trkpt>
      <trkpt lat="47.84856" lon="6.65692">
        <ele>596</ele>
        <time>2021-03-24T22:58:36Z</time>
      </trkpt>
      <trkpt lat="47.84868" lon="6.65686">
        <ele>594</ele>
        <time>2021-03-24T22:58:53Z</time>
      </trkpt>
      <trkpt lat="47.84895" lon="6.65652">
        <ele>591</ele>
        <time>2021-03-24T22:59:40Z</time>
      </trkpt>
      <trkpt lat="47.84905" lon="6.65636">
        <ele>590</ele>
        <time>2021-03-24T23:00:00Z</time>
      </trkpt>
      <trkpt lat="47.84922" lon="6.65596">
        <ele>586</ele>
        <time>2021-03-24T23:00:42Z</time>
      </trkpt>
      <trkpt lat="47.84933" lon="6.6558">
        <ele>583</ele>
        <time>2021-03-24T23:01:03Z</time>
      </trkpt>
      <trkpt lat="47.84944" lon="6.65575">
        <ele>580</ele>
        <time>2021-03-24T23:01:18Z</time>
      </trkpt>
      <trkpt lat="47.84952" lon="6.65575">
        <ele>578</ele>
        <time>2021-03-24T23:01:29Z</time>
      </trkpt>
      <trkpt lat="47.84957" lon="6.6561">
        <ele>577</ele>
        <time>2021-03-24T23:02:01Z</time>
      </trkpt>
      <trkpt lat="47.84962" lon="6.65613">
        <ele>575</ele>
        <time>2021-03-24T23:02:08Z</time>
      </trkpt>
      <trkpt lat="47.84965" lon="6.656">
        <ele>574</ele>
        <time>2021-03-24T23:02:20Z</time>
      </trkpt>
      <trkpt lat="47.84969" lon="6.65596">
        <ele>573</ele>
        <time>2021-03-24T23:02:27Z</time>
      </trkpt>
      <trkpt lat="47.84984" lon="6.6563">
        <ele>569</ele>
        <time>2021-03-24T23:03:03Z</time>
      </trkpt>
      <trkpt lat="47.8499" lon="6.65662">
        <ele>568</ele>
        <time>2021-03-24T23:03:33Z</time>
      </trkpt>
      <trkpt lat="47.84994" lon="6.65691">
        <ele>567</ele>
        <time>2021-03-24T23:03:59Z</time>
      </trkpt>
      <trkpt lat="47.84999" lon="6.65761">
        <ele>563</ele>
        <time>2021-03-24T23:05:02Z</time>
      </trkpt>
      <trkpt lat="47.85009" lon="6.65771">
        <ele>561</ele>
        <time>2021-03-24T23:05:18Z</time>
      </trkpt>
      <trkpt lat="47.85022" lon="6.65776">
        <ele>559</ele>
        <time>2021-03-24T23:05:36Z</time>
      </trkpt>
      <trkpt lat="47.85032" lon="6.65774">
        <ele>558</ele>
        <time>2021-03-24T23:05:50Z</time>
      </trkpt>
      <trkpt lat="47.85025" lon="6.65782">
        <ele>558</ele>
        <time>2021-03-24T23:06:02Z</time>
      </trkpt>
      <trkpt lat="47.8501" lon="6.65794">
        <ele>560</ele>
        <time>2021-03-24T23:06:24Z</time>
      </trkpt>
      <trkpt lat="47.85025" lon="6.65782">
        <ele>558</ele>
        <time>2021-03-24T23:06:47Z</time>
      </trkpt>
      <trkpt lat="47.85032" lon="6.65774">
        <ele>558</ele>
        <time>2021-03-24T23:06:59Z</time>
      </trkpt>
      <trkpt lat="47.85042" lon="6.65748">
        <ele>557</ele>
        <time>2021-03-24T23:07:26Z</time>
      </trkpt>
      <trkpt lat="47.85072" lon="6.65699">
        <ele>550</ele>
        <time>2021-03-24T23:08:25Z</time>
      </trkpt>
      <trkpt lat="47.85089" lon="6.65685">
        <ele>547</ele>
        <time>2021-03-24T23:08:51Z</time>
      </trkpt>
      <trkpt lat="47.85102" lon="6.65682">
        <ele>548</ele>
        <time>2021-03-24T23:09:08Z</time>
      </trkpt>
      <trkpt lat="47.85118" lon="6.65686">
        <ele>549</ele>
        <time>2021-03-24T23:09:30Z</time>
      </trkpt>
      <trkpt lat="47.85133" lon="6.65698">
        <ele>551</ele>
        <time>2021-03-24T23:09:53Z</time>
      </trkpt>
      <trkpt lat="47.85134" lon="6.65706">
        <ele>552</ele>
        <time>2021-03-24T23:10:00Z</time>
      </trkpt>
      <trkpt lat="47.85137" lon="6.65716">
        <ele>553</ele>
        <time>2021-03-24T23:10:10Z</time>
      </trkpt>
      <trkpt lat="47.85139" lon="6.65727">
        <ele>554</ele>
        <time>2021-03-24T23:10:20Z</time>
      </trkpt>
      <trkpt lat="47.85139" lon="6.65731">
        <ele>554</ele>
        <time>2021-03-24T23:10:24Z</time>
      </trkpt>
      <trkpt lat="47.85125" lon="6.65762">
        <ele>555</ele>
        <time>2021-03-24T23:10:57Z</time>
      </trkpt>
      <trkpt lat="47.85113" lon="6.65795">
        <ele>555</ele>
        <time>2021-03-24T23:11:31Z</time>
      </trkpt>
      <trkpt lat="47.85106" lon="6.65826">
        <ele>554</ele>
        <time>2021-03-24T23:12:00Z</time>
      </trkpt>
      <trkpt lat="47.85108" lon="6.65854">
        <ele>554</ele>
        <time>2021-03-24T23:12:25Z</time>
      </trkpt>
      <trkpt lat="47.85108" lon="6.65887">
        <ele>553</ele>
        <time>2021-03-24T23:12:55Z</time>
      </trkpt>
      <trkpt lat="47.85096" lon="6.65987">
        <ele>554</ele>
        <time>2021-03-24T23:14:26Z</time>
      </trkpt>
      <trkpt lat="47.85095" lon="6.66038">
        <ele>558</ele>
        <time>2021-03-24T23:15:12Z</time>
      </trkpt>
      <trkpt lat="47.851" lon="6.66101">
        <ele>564</ele>
        <time>2021-03-24T23:16:08Z</time>
      </trkpt>
      <trkpt lat="47.85097" lon="6.66122">
        <ele>565</ele>
        <time>2021-03-24T23:16:28Z</time>
      </trkpt>
      <trkpt lat="47.851" lon="6.66195">
        <ele>569</ele>
        <time>2021-03-24T23:17:33Z</time>
      </trkpt>
      <trkpt lat="47.85082" lon="6.66225">
        <ele>567</ele>
        <time>2021-03-24T23:18:09Z</time>
      </trkpt>
      <trkpt lat="47.85045" lon="6.66257">
        <ele>571</ele>
        <time>2021-03-24T23:19:06Z</time>
      </trkpt>
      <trkpt lat="47.85038" lon="6.66274">
        <ele>571</ele>
        <time>2021-03-24T23:19:24Z</time>
      </trkpt>
      <trkpt lat="47.85024" lon="6.66377">
        <ele>572</ele>
        <time>2021-03-24T23:20:58Z</time>
      </trkpt>
      <trkpt lat="47.85025" lon="6.66393">
        <ele>571</ele>
        <time>2021-03-24T23:21:13Z</time>
      </trkpt>
      <trkpt lat="47.85031" lon="6.66401">
        <ele>572</ele>
        <time>2021-03-24T23:21:23Z</time>
      </trkpt>
      <trkpt lat="47.85047" lon="6.66448">
        <ele>569</ele>
        <time>2021-03-24T23:22:10Z</time>
      </trkpt>
      <trkpt lat="47.85058" lon="6.66458">
        <ele>568</ele>
        <time>2021-03-24T23:22:28Z</time>
      </trkpt>
      <trkpt lat="47.85093" lon="6.66478">
        <ele>569</ele>
        <time>2021-03-24T23:23:18Z</time>
      </trkpt>
      <trkpt lat="47.85107" lon="6.6649">
        <ele>570</ele>
        <time>2021-03-24T23:23:39Z</time>
      </trkpt>
      <trkpt lat="47.85158" lon="6.6656">
        <ele>571</ele>
        <time>2021-03-24T23:25:12Z</time>
      </trkpt>
      <trkpt lat="47.85187" lon="6.66608">
        <ele>571</ele>
        <time>2021-03-24T23:26:10Z</time>
      </trkpt>
      <trkpt lat="47.85213" lon="6.66642">
        <ele>572</ele>
        <time>2021-03-24T23:26:56Z</time>
      </trkpt>
      <trkpt lat="47.85298" lon="6.66773">
        <ele>573</ele>
        <time>2021-03-24T23:29:39Z</time>
      </trkpt>
      <trkpt lat="47.85315" lon="6.66793">
        <ele>574</ele>
        <time>2021-03-24T23:30:08Z</time>
      </trkpt>
      <trkpt lat="47.85333" lon="6.66846">
        <ele>572</ele>
        <time>2021-03-24T23:31:01Z</time>
      </trkpt>
      <trkpt lat="47.8537" lon="6.66906">
        <ele>574</ele>
        <time>2021-03-24T23:32:14Z</time>
      </trkpt>
      <trkpt lat="47.85392" lon="6.6692">
        <ele>575</ele>
        <time>2021-03-24T23:32:46Z</time>
      </trkpt>
      <trkpt lat="47.85406" lon="6.66925">
        <ele>577</ele>
        <time>2021-03-24T23:33:05Z</time>
      </trkpt>
      <trkpt lat="47.8541" lon="6.66924">
        <ele>577</ele>
        <time>2021-03-24T23:33:11Z</time>
      </trkpt>
      <trkpt lat="47.8542" lon="6.66932">
        <ele>578</ele>
        <time>2021-03-24T23:33:26Z</time>
      </trkpt>
      <trkpt lat="47.85479" lon="6.67018">
        <ele>583</ele>
        <time>2021-03-24T23:35:16Z</time>
      </trkpt>
      <trkpt lat="47.85533" lon="6.67056">
        <ele>586</ele>
        <time>2021-03-24T23:36:36Z</time>
      </trkpt>
      <trkpt lat="47.85584" lon="6.67102">
        <ele>585</ele>
        <time>2021-03-24T23:37:55Z</time>
      </trkpt>
      <trkpt lat="47.8567" lon="6.67142">
        <ele>586</ele>
        <time>2021-03-24T23:39:55Z</time>
      </trkpt>
      <trkpt lat="47.85691" lon="6.67156">
        <ele>586</ele>
        <time>2021-03-24T23:40:26Z</time>
      </trkpt>
      <trkpt lat="47.85708" lon="6.67175">
        <ele>587</ele>
        <time>2021-03-24T23:40:54Z</time>
      </trkpt>
      <trkpt lat="47.85741" lon="6.67206">
        <ele>589</ele>
        <time>2021-03-24T23:41:46Z</time>
      </trkpt>
      <trkpt lat="47.85772" lon="6.67241">
        <ele>591</ele>
        <time>2021-03-24T23:42:38Z</time>
      </trkpt>
      <trkpt lat="47.85787" lon="6.67253">
        <ele>591</ele>
        <time>2021-03-24T23:43:01Z</time>
      </trkpt>
      <trkpt lat="47.85852" lon="6.67282">
        <ele>594</ele>
        <time>2021-03-24T23:44:32Z</time>
      </trkpt>
      <trkpt lat="47.85877" lon="6.67273">
        <ele>596</ele>
        <time>2021-03-24T23:45:06Z</time>
      </trkpt>
      <trkpt lat="47.85895" lon="6.67275">
        <ele>597</ele>
        <time>2021-03-24T23:45:30Z</time>
      </trkpt>
      <trkpt lat="47.8592" lon="6.67286">
        <ele>599</ele>
        <time>2021-03-24T23:46:05Z</time>
      </trkpt>
      <trkpt lat="47.85966" lon="6.67343">
        <ele>599</ele>
        <time>2021-03-24T23:47:25Z</time>
      </trkpt>
      <trkpt lat="47.85985" lon="6.67397">
        <ele>599</ele>
        <time>2021-03-24T23:48:19Z</time>
      </trkpt>
      <trkpt lat="47.86034" lon="6.67549">
        <ele>600</ele>
        <time>2021-03-24T23:50:50Z</time>
      </trkpt>
      <trkpt lat="47.86059" lon="6.67589">
        <ele>597</ele>
        <time>2021-03-24T23:51:39Z</time>
      </trkpt>
      <trkpt lat="47.86077" lon="6.67608">
        <ele>596</ele>
        <time>2021-03-24T23:52:09Z</time>
      </trkpt>
      <trkpt lat="47.86115" lon="6.67669">
        <ele>598</ele>
        <time>2021-03-24T23:53:23Z</time>
      </trkpt>
      <trkpt lat="47.86125" lon="6.67673">
        <ele>598</ele>
        <time>2021-03-24T23:53:37Z</time>
      </trkpt>
      <trkpt lat="47.86115" lon="6.67669">
        <ele>598</ele>
        <time>2021-03-24T23:53:51Z</time>
      </trkpt>
      <trkpt lat="47.86085" lon="6.67713">
        <ele>597</ele>
        <time>2021-03-24T23:54:47Z</time>
      </trkpt>
      <trkpt lat="47.8608" lon="6.67731">
        <ele>597</ele>
        <time>2021-03-24T23:55:04Z</time>
      </trkpt>
      <trkpt lat="47.8608" lon="6.67744">
        <ele>597</ele>
        <time>2021-03-24T23:55:16Z</time>
      </trkpt>
      <trkpt lat="47.86076" lon="6.67759">
        <ele>598</ele>
        <time>2021-03-24T23:55:30Z</time>
      </trkpt>
      <trkpt lat="47.86069" lon="6.6777">
        <ele>599</ele>
        <time>2021-03-24T23:55:44Z</time>
      </trkpt>
      <trkpt lat="47.86033" lon="6.67792">
        <ele>604</ele>
        <time>2021-03-24T23:56:36Z</time>
      </trkpt>
      <trkpt lat="47.86019" lon="6.67805">
        <ele>606</ele>
        <time>2021-03-24T23:56:58Z</time>
      </trkpt>
      <trkpt lat="47.8601" lon="6.67819">
        <ele>608</ele>
        <time>2021-03-24T23:57:15Z</time>
      </trkpt>
      <trkpt lat="47.85999" lon="6.67844">
        <ele>610</ele>
        <time>2021-03-24T23:57:42Z</time>
      </trkpt>
      <trkpt lat="47.8599" lon="6.6786">
        <ele>613</ele>
        <time>2021-03-24T23:58:01Z</time>
      </trkpt>
      <trkpt lat="47.85986" lon="6.67871">
        <ele>615</ele>
        <time>2021-03-24T23:58:12Z</time>
      </trkpt>
    </trkseg>
  </trk>
</gpx>